sensor_id;sensor_type;location;lat;lon;timestamp;pressure;altitude;pressure_sealevel;temperature;humidity
43147;BME280;28752;48.266;7.402;2023-10-31T00:01:50;98056.03;;;13.12;80.71
43147;BME280;28752;48.266;7.402;2023-10-31T00:04:15;98045.63;;;13.11;81.21
43147;BME280;28752;48.266;7.402;2023-10-31T00:06:41;98050.75;;;13.19;81.40
43147;BME280;28752;48.266;7.402;2023-10-31T00:09:06;98045.22;;;13.14;80.84
43147;BME280;28752;48.266;7.402;2023-10-31T00:11:32;98044.59;;;13.12;81.58
43147;BME280;28752;48.266;7.402;2023-10-31T00:13:57;98059.13;;;13.16;82.14
43147;BME280;28752;48.266;7.402;2023-10-31T00:16:22;98049.53;;;13.15;82.12
43147;BME280;28752;48.266;7.402;2023-10-31T00:18:48;98053.81;;;13.16;81.20
43147;BME280;28752;48.266;7.402;2023-10-31T00:21:14;98061.56;;;13.11;80.81
43147;BME280;28752;48.266;7.402;2023-10-31T00:23:48;98064.25;;;13.18;79.52
43147;BME280;28752;48.266;7.402;2023-10-31T00:26:14;98066.09;;;13.17;79.35
43147;BME280;28752;48.266;7.402;2023-10-31T00:28:40;98068.97;;;13.22;79.30
43147;BME280;28752;48.266;7.402;2023-10-31T00:31:05;98068.97;;;13.22;80.13
43147;BME280;28752;48.266;7.402;2023-10-31T00:33:33;98058.31;;;13.15;80.70
43147;BME280;28752;48.266;7.402;2023-10-31T00:35:59;98057.69;;;13.13;80.33
43147;BME280;28752;48.266;7.402;2023-10-31T00:38:25;98057.91;;;13.19;79.96
43147;BME280;28752;48.266;7.402;2023-10-31T00:40:50;98053.41;;;13.19;80.49
43147;BME280;28752;48.266;7.402;2023-10-31T00:43:15;98055.44;;;13.10;80.29
43147;BME280;28752;48.266;7.402;2023-10-31T00:45:41;98063.81;;;13.14;80.37
43147;BME280;28752;48.266;7.402;2023-10-31T00:48:06;98060.75;;;13.10;80.14
43147;BME280;28752;48.266;7.402;2023-10-31T00:50:31;98060.56;;;13.12;79.97
43147;BME280;28752;48.266;7.402;2023-10-31T00:52:57;98060.75;;;13.10;80.41
43147;BME280;28752;48.266;7.402;2023-10-31T00:55:22;98062.16;;;13.13;80.77
43147;BME280;28752;48.266;7.402;2023-10-31T00:57:47;98062.81;;;13.15;80.88
43147;BME280;28752;48.266;7.402;2023-10-31T01:00:13;98062.38;;;13.11;80.96
43147;BME280;28752;48.266;7.402;2023-10-31T01:02:38;98039.81;;;13.01;81.64
43147;BME280;28752;48.266;7.402;2023-10-31T01:05:04;98060.31;;;13.07;82.79
43147;BME280;28752;48.266;7.402;2023-10-31T01:07:29;98059.63;;;12.98;82.64
43147;BME280;28752;48.266;7.402;2023-10-31T01:09:55;98058.63;;;12.99;80.35
43147;BME280;28752;48.266;7.402;2023-10-31T01:12:20;98070.22;;;12.91;80.78
43147;BME280;28752;48.266;7.402;2023-10-31T01:14:45;98064.28;;;12.89;81.87
43147;BME280;28752;48.266;7.402;2023-10-31T01:17:11;98070.56;;;12.82;82.27
43147;BME280;28752;48.266;7.402;2023-10-31T01:19:36;98077.84;;;12.73;81.85
43147;BME280;28752;48.266;7.402;2023-10-31T01:22:01;98070.56;;;12.82;81.69
43147;BME280;28752;48.266;7.402;2023-10-31T01:24:27;98075.19;;;12.73;82.62
43147;BME280;28752;48.266;7.402;2023-10-31T01:26:52;98077.91;;;12.79;82.45
43147;BME280;28752;48.266;7.402;2023-10-31T01:29:17;98082.59;;;12.77;82.49
43147;BME280;28752;48.266;7.402;2023-10-31T01:31:43;98084.06;;;12.80;83.28
43147;BME280;28752;48.266;7.402;2023-10-31T01:34:08;98077.66;;;12.74;83.72
43147;BME280;28752;48.266;7.402;2023-10-31T01:36:34;98079.50;;;12.74;83.70
43147;BME280;28752;48.266;7.402;2023-10-31T01:38:59;98088.69;;;12.71;83.97
43147;BME280;28752;48.266;7.402;2023-10-31T01:41:25;98081.66;;;12.64;84.23
43147;BME280;28752;48.266;7.402;2023-10-31T01:43:50;98090.63;;;12.62;85.01
43147;BME280;28752;48.266;7.402;2023-10-31T01:46:16;98099.38;;;12.56;83.17
43147;BME280;28752;48.266;7.402;2023-10-31T01:48:41;98086.47;;;12.53;83.46
43147;BME280;28752;48.266;7.402;2023-10-31T01:51:08;98089.94;;;12.54;83.96
43147;BME280;28752;48.266;7.402;2023-10-31T01:53:35;98104.31;;;12.59;82.96
43147;BME280;28752;48.266;7.402;2023-10-31T01:56:03;98101.66;;;12.59;84.03
43147;BME280;28752;48.266;7.402;2023-10-31T01:58:31;98097.91;;;12.54;82.32
43147;BME280;28752;48.266;7.402;2023-10-31T02:00:57;98088.31;;;12.53;81.98
43147;BME280;28752;48.266;7.402;2023-10-31T02:03:23;98102.06;;;12.63;81.44
43147;BME280;28752;48.266;7.402;2023-10-31T02:05:51;98115.63;;;12.68;81.18
43147;BME280;28752;48.266;7.402;2023-10-31T02:08:16;98121.50;;;12.64;81.06
43147;BME280;28752;48.266;7.402;2023-10-31T02:10:42;98117.81;;;12.65;80.56
43147;BME280;28752;48.266;7.402;2023-10-31T02:13:14;98118.66;;;12.65;80.04
43147;BME280;28752;48.266;7.402;2023-10-31T02:15:40;98127.00;;;12.62;79.79
43147;BME280;28752;48.266;7.402;2023-10-31T02:18:07;98119.66;;;12.64;78.14
43147;BME280;28752;48.266;7.402;2023-10-31T02:20:32;98118.00;;;12.63;77.32
43147;BME280;28752;48.266;7.402;2023-10-31T02:22:58;98118.84;;;12.64;76.23
43147;BME280;28752;48.266;7.402;2023-10-31T02:25:23;98128.31;;;12.73;76.53
43147;BME280;28752;48.266;7.402;2023-10-31T02:27:49;98111.06;;;12.62;76.21
43147;BME280;28752;48.266;7.402;2023-10-31T02:30:14;98113.91;;;12.60;74.61
43147;BME280;28752;48.266;7.402;2023-10-31T02:32:40;98113.91;;;12.60;73.47
43147;BME280;28752;48.266;7.402;2023-10-31T02:35:06;98118.56;;;12.58;73.48
43147;BME280;28752;48.266;7.402;2023-10-31T02:37:32;98116.97;;;12.57;73.09
43147;BME280;28752;48.266;7.402;2023-10-31T02:39:58;98124.78;;;12.66;73.31
43147;BME280;28752;48.266;7.402;2023-10-31T02:42:24;98124.59;;;12.67;74.05
43147;BME280;28752;48.266;7.402;2023-10-31T02:44:50;98121.94;;;12.67;73.48
43147;BME280;28752;48.266;7.402;2023-10-31T02:47:15;98131.34;;;12.70;73.42
43147;BME280;28752;48.266;7.402;2023-10-31T02:49:40;98143.78;;;12.69;73.02
43147;BME280;28752;48.266;7.402;2023-10-31T02:52:06;98145.91;;;12.74;73.70
43147;BME280;28752;48.266;7.402;2023-10-31T02:54:31;98134.41;;;12.67;73.64
43147;BME280;28752;48.266;7.402;2023-10-31T02:56:57;98149.28;;;12.68;74.87
43147;BME280;28752;48.266;7.402;2023-10-31T02:59:24;98157.72;;;12.71;74.82
43147;BME280;28752;48.266;7.402;2023-10-31T03:01:49;98160.94;;;12.67;75.09
43147;BME280;28752;48.266;7.402;2023-10-31T03:04:15;98162.22;;;12.71;75.88
43147;BME280;28752;48.266;7.402;2023-10-31T03:06:40;98169.91;;;12.66;75.75
43147;BME280;28752;48.266;7.402;2023-10-31T03:09:06;98171.56;;;12.67;75.59
43147;BME280;28752;48.266;7.402;2023-10-31T03:11:32;98159.69;;;12.62;74.33
43147;BME280;28752;48.266;7.402;2023-10-31T03:13:58;98171.38;;;12.68;73.54
43147;BME280;28752;48.266;7.402;2023-10-31T03:16:25;98175.84;;;12.68;72.69
43147;BME280;28752;48.266;7.402;2023-10-31T03:18:50;98184.47;;;12.70;71.84
43147;BME280;28752;48.266;7.402;2023-10-31T03:21:16;98186.75;;;12.73;72.16
43147;BME280;28752;48.266;7.402;2023-10-31T03:23:46;98195.97;;;12.77;72.61
43147;BME280;28752;48.266;7.402;2023-10-31T03:26:11;98192.06;;;12.73;73.76
43147;BME280;28752;48.266;7.402;2023-10-31T03:28:37;98186.97;;;12.78;72.19
43147;BME280;28752;48.266;7.402;2023-10-31T03:31:02;98195.66;;;12.65;70.45
43147;BME280;28752;48.266;7.402;2023-10-31T03:33:27;98202.22;;;12.69;69.17
43147;BME280;28752;48.266;7.402;2023-10-31T03:35:53;98203.88;;;12.70;70.27
43147;BME280;28752;48.266;7.402;2023-10-31T03:38:18;98195.47;;;12.67;69.87
43147;BME280;28752;48.266;7.402;2023-10-31T03:40:43;98202.53;;;12.59;70.03
43147;BME280;28752;48.266;7.402;2023-10-31T03:43:09;98204.19;;;12.60;70.22
43147;BME280;28752;48.266;7.402;2023-10-31T03:45:34;98211.88;;;12.55;70.82
43147;BME280;28752;48.266;7.402;2023-10-31T03:47:59;98205.72;;;12.48;71.45
43147;BME280;28752;48.266;7.402;2023-10-31T03:50:25;98211.06;;;12.33;71.60
43147;BME280;28752;48.266;7.402;2023-10-31T03:52:50;98216.53;;;12.32;71.95
43147;BME280;28752;48.266;7.402;2023-10-31T03:55:15;98216.19;;;12.35;72.43
43147;BME280;28752;48.266;7.402;2023-10-31T03:57:41;98211.88;;;12.34;73.21
43147;BME280;28752;48.266;7.402;2023-10-31T04:00:06;98221.47;;;12.35;72.98
43147;BME280;28752;48.266;7.402;2023-10-31T04:02:32;98226.13;;;12.33;72.58
43147;BME280;28752;48.266;7.402;2023-10-31T04:04:58;98219.75;;;12.27;73.07
43147;BME280;28752;48.266;7.402;2023-10-31T04:07:25;98199.34;;;12.27;74.19
43147;BME280;28752;48.266;7.402;2023-10-31T04:09:50;98204.72;;;12.34;74.83
43147;BME280;28752;48.266;7.402;2023-10-31T04:12:17;98196.56;;;12.36;75.48
43147;BME280;28752;48.266;7.402;2023-10-31T04:14:42;98194.19;;;12.41;76.29
43147;BME280;28752;48.266;7.402;2023-10-31T04:17:07;98197.66;;;12.41;76.96
43147;BME280;28752;48.266;7.402;2023-10-31T04:19:33;98190.72;;;12.40;77.14
43147;BME280;28752;48.266;7.402;2023-10-31T04:21:58;98197.84;;;12.40;77.41
43147;BME280;28752;48.266;7.402;2023-10-31T04:24:23;98196.03;;;12.40;78.26
43147;BME280;28752;48.266;7.402;2023-10-31T04:26:49;98193.38;;;12.40;78.80
43147;BME280;28752;48.266;7.402;2023-10-31T04:29:14;98194.94;;;12.35;78.92
43147;BME280;28752;48.266;7.402;2023-10-31T04:31:39;98198.97;;;12.31;79.32
43147;BME280;28752;48.266;7.402;2023-10-31T04:34:05;98206.19;;;12.37;79.15
43147;BME280;28752;48.266;7.402;2023-10-31T04:36:30;98223.09;;;12.36;79.54
43147;BME280;28752;48.266;7.402;2023-10-31T04:38:55;98233.84;;;12.27;80.02
43147;BME280;28752;48.266;7.402;2023-10-31T04:41:20;98227.97;;;12.32;81.22
43147;BME280;28752;48.266;7.402;2023-10-31T04:43:46;98228.59;;;12.34;82.75
43147;BME280;28752;48.266;7.402;2023-10-31T04:46:11;98229.81;;;12.32;84.07
43147;BME280;28752;48.266;7.402;2023-10-31T04:48:37;98239.78;;;12.30;83.49
43147;BME280;28752;48.266;7.402;2023-10-31T04:51:02;98250.41;;;12.30;83.54
43147;BME280;28752;48.266;7.402;2023-10-31T04:53:28;98243.91;;;12.32;83.77
43147;BME280;28752;48.266;7.402;2023-10-31T04:55:54;98250.41;;;12.30;84.18
43147;BME280;28752;48.266;7.402;2023-10-31T04:58:19;98249.41;;;12.31;84.64
43147;BME280;28752;48.266;7.402;2023-10-31T05:00:46;98252.50;;;12.34;84.39
43147;BME280;28752;48.266;7.402;2023-10-31T05:03:11;98255.06;;;12.27;85.40
43147;BME280;28752;48.266;7.402;2023-10-31T05:05:36;98262.66;;;12.31;85.59
43147;BME280;28752;48.266;7.402;2023-10-31T05:08:02;98266.31;;;12.30;86.21
43147;BME280;28752;48.266;7.402;2023-10-31T05:10:27;98264.31;;;12.32;86.15
43147;BME280;28752;48.266;7.402;2023-10-31T05:12:52;98272.28;;;12.32;86.42
43147;BME280;28752;48.266;7.402;2023-10-31T05:15:18;98270.25;;;12.34;85.94
43147;BME280;28752;48.266;7.402;2023-10-31T05:17:44;98266.97;;;12.32;85.75
43147;BME280;28752;48.266;7.402;2023-10-31T05:20:09;98267.16;;;12.30;85.65
43147;BME280;28752;48.266;7.402;2023-10-31T05:22:36;98275.31;;;12.29;85.96
43147;BME280;28752;48.266;7.402;2023-10-31T05:25:02;98271.44;;;12.31;85.63
43147;BME280;28752;48.266;7.402;2023-10-31T05:27:27;98271.19;;;12.26;85.49
43147;BME280;28752;48.266;7.402;2023-10-31T05:29:54;98266.81;;;12.18;85.84
43147;BME280;28752;48.266;7.402;2023-10-31T05:32:19;98283.66;;;12.25;85.79
43147;BME280;28752;48.266;7.402;2023-10-31T05:34:45;98278.69;;;12.22;85.67
43147;BME280;28752;48.266;7.402;2023-10-31T05:37:10;98281.06;;;12.17;85.76
43147;BME280;28752;48.266;7.402;2023-10-31T05:39:35;98286.38;;;12.17;85.79
43147;BME280;28752;48.266;7.402;2023-10-31T05:42:02;98280.25;;;12.17;85.59
43147;BME280;28752;48.266;7.402;2023-10-31T05:44:27;98274.88;;;12.10;85.27
43147;BME280;28752;48.266;7.402;2023-10-31T05:46:53;98281.63;;;12.13;85.25
43147;BME280;28752;48.266;7.402;2023-10-31T05:49:19;98282.00;;;12.09;85.86
43147;BME280;28752;48.266;7.402;2023-10-31T05:51:44;98279.34;;;12.09;85.97
43147;BME280;28752;48.266;7.402;2023-10-31T05:54:10;98282.66;;;12.12;85.54
43147;BME280;28752;48.266;7.402;2023-10-31T05:56:35;98282.00;;;12.09;85.98
43147;BME280;28752;48.266;7.402;2023-10-31T05:59:00;98285.56;;;12.17;85.79
43147;BME280;28752;48.266;7.402;2023-10-31T06:01:26;98271.75;;;12.06;86.30
43147;BME280;28752;48.266;7.402;2023-10-31T06:03:51;98282.66;;;12.12;86.79
43147;BME280;28752;48.266;7.402;2023-10-31T06:06:16;98290.44;;;12.13;86.75
43147;BME280;28752;48.266;7.402;2023-10-31T06:08:42;98293.09;;;12.13;87.12
43147;BME280;28752;48.266;7.402;2023-10-31T06:11:07;98286.38;;;12.17;87.08
43147;BME280;28752;48.266;7.402;2023-10-31T06:13:33;98293.72;;;12.15;87.09
43147;BME280;28752;48.266;7.402;2023-10-31T06:16:00;98297.53;;;12.13;87.40
43147;BME280;28752;48.266;7.402;2023-10-31T06:18:26;98288.78;;;12.12;87.40
43147;BME280;28752;48.266;7.402;2023-10-31T06:20:52;98278.34;;;12.11;87.61
43147;BME280;28752;48.266;7.402;2023-10-31T06:23:17;98281.44;;;11.99;87.91
43147;BME280;28752;48.266;7.402;2023-10-31T06:25:43;98284.28;;;11.98;87.90
43147;BME280;28752;48.266;7.402;2023-10-31T06:28:08;98272.84;;;11.97;88.22
43147;BME280;28752;48.266;7.402;2023-10-31T06:30:33;98284.63;;;11.95;88.45
43147;BME280;28752;48.266;7.402;2023-10-31T06:32:59;98287.63;;;11.91;88.19
43147;BME280;28752;48.266;7.402;2023-10-31T06:35:25;98290.38;;;11.83;88.44
43147;BME280;28752;48.266;7.402;2023-10-31T06:37:51;98286.06;;;11.82;89.14
43147;BME280;28752;48.266;7.402;2023-10-31T06:40:17;98286.97;;;11.74;89.13
43147;BME280;28752;48.266;7.402;2023-10-31T06:42:42;98301.53;;;11.79;89.27
43147;BME280;28752;48.266;7.402;2023-10-31T06:45:08;98304.00;;;11.80;89.41
43147;BME280;28752;48.266;7.402;2023-10-31T06:47:34;98306.91;;;11.85;89.53
43147;BME280;28752;48.266;7.402;2023-10-31T06:49:59;98293.03;;;11.83;89.17
43147;BME280;28752;48.266;7.402;2023-10-31T06:52:24;98304.22;;;11.94;88.98
43147;BME280;28752;48.266;7.402;2023-10-31T06:54:50;98317.94;;;11.97;88.86
43147;BME280;28752;48.266;7.402;2023-10-31T06:57:15;98323.16;;;12.05;88.86
43147;BME280;28752;48.266;7.402;2023-10-31T06:59:41;98321.16;;;12.07;88.41
43147;BME280;28752;48.266;7.402;2023-10-31T07:02:07;98331.94;;;12.06;88.39
43147;BME280;28752;48.266;7.402;2023-10-31T07:04:32;98340.72;;;12.06;88.80
43147;BME280;28752;48.266;7.402;2023-10-31T07:06:58;98328.00;;;12.02;88.65
43147;BME280;28752;48.266;7.402;2023-10-31T07:09:24;98339.63;;;12.01;89.40
43147;BME280;28752;48.266;7.402;2023-10-31T07:11:49;98341.03;;;11.88;89.97
43147;BME280;28752;48.266;7.402;2023-10-31T07:14:15;98352.44;;;11.97;90.87
43147;BME280;28752;48.266;7.402;2023-10-31T07:16:40;98342.56;;;12.06;90.80
43147;BME280;28752;48.266;7.402;2023-10-31T07:19:09;98355.38;;;12.17;90.72
43147;BME280;28752;48.266;7.402;2023-10-31T07:21:34;98359.94;;;12.23;90.88
43147;BME280;28752;48.266;7.402;2023-10-31T07:23:59;98350.81;;;12.26;90.93
43147;BME280;28752;48.266;7.402;2023-10-31T07:26:25;98360.41;;;12.27;90.52
43147;BME280;28752;48.266;7.402;2023-10-31T07:28:52;98362.78;;;12.22;90.84
43147;BME280;28752;48.266;7.402;2023-10-31T07:31:18;98354.09;;;12.28;91.46
43147;BME280;28752;48.266;7.402;2023-10-31T07:33:47;98351.25;;;12.30;91.00
43147;BME280;28752;48.266;7.402;2023-10-31T07:36:12;98359.22;;;12.44;90.70
43147;BME280;28752;48.266;7.402;2023-10-31T07:38:38;98357.84;;;12.49;90.35
43147;BME280;28752;48.266;7.402;2023-10-31T07:41:03;98365.06;;;12.55;89.95
43147;BME280;28752;48.266;7.402;2023-10-31T07:43:29;98367.78;;;12.61;89.72
43147;BME280;28752;48.266;7.402;2023-10-31T07:45:54;98371.00;;;12.72;88.97
43147;BME280;28752;48.266;7.402;2023-10-31T07:48:20;98375.38;;;12.79;87.38
43147;BME280;28752;48.266;7.402;2023-10-31T07:50:45;98385.94;;;12.73;87.69
43147;BME280;28752;48.266;7.402;2023-10-31T07:53:11;98384.47;;;12.70;87.43
43147;BME280;28752;48.266;7.402;2023-10-31T07:55:36;98379.09;;;12.64;87.88
43147;BME280;28752;48.266;7.402;2023-10-31T07:58:01;98389.69;;;12.78;88.59
43147;BME280;28752;48.266;7.402;2023-10-31T08:00:27;98387.63;;;12.95;88.58
43147;BME280;28752;48.266;7.402;2023-10-31T08:02:52;98392.34;;;13.15;87.96
43147;BME280;28752;48.266;7.402;2023-10-31T08:05:17;98395.13;;;13.28;86.99
43147;BME280;28752;48.266;7.402;2023-10-31T08:07:43;98398.09;;;13.33;86.91
43147;BME280;28752;48.266;7.402;2023-10-31T08:10:08;98403.13;;;13.28;86.74
43147;BME280;28752;48.266;7.402;2023-10-31T08:12:34;98405.69;;;13.37;86.37
43147;BME280;28752;48.266;7.402;2023-10-31T08:15:00;98394.69;;;13.40;86.32
43147;BME280;28752;48.266;7.402;2023-10-31T08:17:25;98402.22;;;13.58;85.88
43147;BME280;28752;48.266;7.402;2023-10-31T08:19:51;98406.78;;;13.64;85.86
43147;BME280;28752;48.266;7.402;2023-10-31T08:22:16;98416.97;;;13.60;84.81
43147;BME280;28752;48.266;7.402;2023-10-31T08:24:42;98415.28;;;13.74;84.06
43147;BME280;28752;48.266;7.402;2023-10-31T08:27:07;98408.59;;;13.85;83.41
43147;BME280;28752;48.266;7.402;2023-10-31T08:29:33;98416.59;;;14.13;83.41
43147;BME280;28752;48.266;7.402;2023-10-31T08:31:58;98411.84;;;14.37;82.58
43147;BME280;28752;48.266;7.402;2023-10-31T08:34:24;98407.28;;;14.59;80.67
43147;BME280;28752;48.266;7.402;2023-10-31T08:36:49;98415.00;;;14.54;79.74
43147;BME280;28752;48.266;7.402;2023-10-31T08:39:15;98409.94;;;14.59;79.48
43147;BME280;28752;48.266;7.402;2023-10-31T08:41:56;98414.59;;;14.50;79.80
43147;BME280;28752;48.266;7.402;2023-10-31T08:44:22;98425.88;;;14.52;80.46
43147;BME280;28752;48.266;7.402;2023-10-31T08:46:48;98419.47;;;14.47;80.84
43147;BME280;28752;48.266;7.402;2023-10-31T08:49:17;98422.00;;;14.55;80.43
43147;BME280;28752;48.266;7.402;2023-10-31T08:51:42;98414.22;;;14.53;80.48
43147;BME280;28752;48.266;7.402;2023-10-31T08:54:08;98416.09;;;14.60;80.82
43147;BME280;28752;48.266;7.402;2023-10-31T08:56:34;98422.31;;;14.73;80.11
43147;BME280;28752;48.266;7.402;2023-10-31T08:59:00;98424.81;;;14.82;80.08
43147;BME280;28752;48.266;7.402;2023-10-31T09:01:26;98422.53;;;14.72;80.14
43147;BME280;28752;48.266;7.402;2023-10-31T09:03:52;98421.06;;;14.69;79.81
43147;BME280;28752;48.266;7.402;2023-10-31T09:06:17;98416.41;;;14.78;80.02
43147;BME280;28752;48.266;7.402;2023-10-31T09:08:43;98417.47;;;14.90;80.48
43147;BME280;28752;48.266;7.402;2023-10-31T09:11:08;98411.22;;;15.12;79.31
43147;BME280;28752;48.266;7.402;2023-10-31T09:13:33;98420.50;;;15.36;79.45
43147;BME280;28752;48.266;7.402;2023-10-31T09:15:59;98420.28;;;15.24;78.58
43147;BME280;28752;48.266;7.402;2023-10-31T09:18:24;98418.44;;;15.24;78.29
43147;BME280;28752;48.266;7.402;2023-10-31T09:20:50;98427.66;;;15.28;77.29
43147;BME280;28752;48.266;7.402;2023-10-31T09:23:15;98431.53;;;15.19;77.71
43147;BME280;28752;48.266;7.402;2023-10-31T09:25:42;98436.84;;;15.13;77.84
43147;BME280;28752;48.266;7.402;2023-10-31T09:28:08;98421.00;;;14.98;78.39
43147;BME280;28752;48.266;7.402;2023-10-31T09:30:33;98422.88;;;14.97;78.21
43147;BME280;28752;48.266;7.402;2023-10-31T09:32:58;98428.13;;;14.84;78.87
43147;BME280;28752;48.266;7.402;2023-10-31T09:35:24;98429.84;;;15.05;79.02
43147;BME280;28752;48.266;7.402;2023-10-31T09:37:50;98429.72;;;15.26;78.57
43147;BME280;28752;48.266;7.402;2023-10-31T09:40:15;98434.06;;;15.34;77.95
43147;BME280;28752;48.266;7.402;2023-10-31T09:42:41;98439.78;;;15.38;77.24
43147;BME280;28752;48.266;7.402;2023-10-31T09:45:07;98444.72;;;15.27;76.70
43147;BME280;28752;48.266;7.402;2023-10-31T09:47:32;98441.19;;;15.20;76.41
43147;BME280;28752;48.266;7.402;2023-10-31T09:49:59;98443.06;;;15.26;75.93
43147;BME280;28752;48.266;7.402;2023-10-31T09:52:25;98442.03;;;15.27;75.36
43147;BME280;28752;48.266;7.402;2023-10-31T09:54:52;98454.78;;;15.32;75.95
43147;BME280;28752;48.266;7.402;2023-10-31T09:57:17;98431.56;;;15.26;76.48
43147;BME280;28752;48.266;7.402;2023-10-31T09:59:43;98443.72;;;15.42;76.46
43147;BME280;28752;48.266;7.402;2023-10-31T10:02:08;98448.44;;;15.46;76.20
43147;BME280;28752;48.266;7.402;2023-10-31T10:04:36;98444.34;;;15.57;76.26
43147;BME280;28752;48.266;7.402;2023-10-31T10:07:02;98449.13;;;15.75;75.60
43147;BME280;28752;48.266;7.402;2023-10-31T10:09:28;98436.66;;;15.96;74.87
43147;BME280;28752;48.266;7.402;2023-10-31T10:11:55;98439.72;;;16.20;74.44
43147;BME280;28752;48.266;7.402;2023-10-31T10:14:23;98442.59;;;16.31;73.89
43147;BME280;28752;48.266;7.402;2023-10-31T10:16:50;98444.44;;;16.38;73.15
43147;BME280;28752;48.266;7.402;2023-10-31T10:19:17;98441.34;;;16.41;73.44
43147;BME280;28752;48.266;7.402;2023-10-31T10:21:49;98449.16;;;16.42;73.55
43147;BME280;28752;48.266;7.402;2023-10-31T10:24:16;98436.44;;;16.31;73.42
43147;BME280;28752;48.266;7.402;2023-10-31T10:26:41;98442.59;;;16.25;73.75
43147;BME280;28752;48.266;7.402;2023-10-31T10:29:07;98450.19;;;16.08;74.56
43147;BME280;28752;48.266;7.402;2023-10-31T10:31:32;98453.06;;;15.93;74.76
43147;BME280;28752;48.266;7.402;2023-10-31T10:33:58;98447.72;;;16.06;74.18
43147;BME280;28752;48.266;7.402;2023-10-31T10:36:25;98444.44;;;15.91;73.76
43147;BME280;28752;48.266;7.402;2023-10-31T10:38:56;98451.63;;;15.97;75.01
43147;BME280;28752;48.266;7.402;2023-10-31T10:41:22;98458.63;;;16.11;75.15
43147;BME280;28752;48.266;7.402;2023-10-31T10:43:57;98462.09;;;16.12;74.15
43147;BME280;28752;48.266;7.402;2023-10-31T10:46:25;98467.44;;;16.12;74.16
43147;BME280;28752;48.266;7.402;2023-10-31T10:48:55;98467.88;;;16.02;74.17
43147;BME280;28752;48.266;7.402;2023-10-31T10:51:29;98455.75;;;15.93;74.47
43147;BME280;28752;48.266;7.402;2023-10-31T10:54:19;98452.66;;;15.96;74.62
43147;BME280;28752;48.266;7.402;2023-10-31T10:56:55;98453.28;;;15.98;73.75
43147;BME280;28752;48.266;7.402;2023-10-31T10:59:41;98450.19;;;16.08;73.54
43147;BME280;28752;48.266;7.402;2023-10-31T11:02:07;98454.31;;;16.17;74.02
43147;BME280;28752;48.266;7.402;2023-10-31T11:04:37;98458.63;;;16.11;74.16
43147;BME280;28752;48.266;7.402;2023-10-31T11:07:02;98457.78;;;16.04;74.43
43147;BME280;28752;48.266;7.402;2023-10-31T11:09:30;98459.44;;;15.92;75.11
43147;BME280;28752;48.266;7.402;2023-10-31T11:11:56;98459.44;;;15.85;75.00
43147;BME280;28752;48.266;7.402;2023-10-31T11:14:22;98455.13;;;16.11;75.06
43147;BME280;28752;48.266;7.402;2023-10-31T11:17:34;98446.28;;;16.30;75.62
43147;BME280;28752;48.266;7.402;2023-10-31T11:20:01;98441.56;;;16.46;75.12
43147;BME280;28752;48.266;7.402;2023-10-31T11:22:40;98452.22;;;16.52;74.00
43147;BME280;28752;48.266;7.402;2023-10-31T11:25:10;98434.13;;;16.41;73.06
43147;BME280;28752;48.266;7.402;2023-10-31T11:27:37;98443.75;;;16.62;72.99
43147;BME280;28752;48.266;7.402;2023-10-31T11:30:27;98442.56;;;16.58;72.92
43147;BME280;28752;48.266;7.402;2023-10-31T11:33:13;98447.91;;;16.58;72.29
43147;BME280;28752;48.266;7.402;2023-10-31T11:35:41;98453.84;;;16.60;72.77
43147;BME280;28752;48.266;7.402;2023-10-31T11:38:08;98458.78;;;16.50;73.10
43147;BME280;28752;48.266;7.402;2023-10-31T11:40:58;98456.34;;;16.42;72.29
43147;BME280;28752;48.266;7.402;2023-10-31T11:43:24;98461.06;;;16.46;72.13
43147;BME280;28752;48.266;7.402;2023-10-31T11:45:50;98454.50;;;16.42;71.57
43147;BME280;28752;48.266;7.402;2023-10-31T11:48:15;98461.66;;;16.48;71.50
43147;BME280;28752;48.266;7.402;2023-10-31T11:50:41;98459.63;;;16.50;71.23
43147;BME280;28752;48.266;7.402;2023-10-31T11:53:08;98459.84;;;16.42;70.09
43147;BME280;28752;48.266;7.402;2023-10-31T11:55:40;98465.19;;;16.29;69.68
43147;BME280;28752;48.266;7.402;2023-10-31T11:58:22;98460.06;;;16.34;70.02
43147;BME280;28752;48.266;7.402;2023-10-31T12:01:02;98462.50;;;16.29;69.93
43147;BME280;28752;48.266;7.402;2023-10-31T12:03:42;98468.69;;;16.16;70.07
43147;BME280;28752;48.266;7.402;2023-10-31T12:06:09;98471.13;;;16.11;70.97
43147;BME280;28752;48.266;7.402;2023-10-31T12:08:39;98465.19;;;16.09;70.51
43147;BME280;28752;48.266;7.402;2023-10-31T12:11:11;98482.84;;;16.03;71.37
43147;BME280;28752;48.266;7.402;2023-10-31T12:13:39;98479.34;;;15.89;71.99
43147;BME280;28752;48.266;7.402;2023-10-31T12:16:06;98482.16;;;15.74;73.53
43147;BME280;28752;48.266;7.402;2023-10-31T12:18:34;98480.09;;;15.56;74.90
43147;BME280;28752;48.266;7.402;2023-10-31T12:20:59;98479.00;;;15.44;75.29
43147;BME280;28752;48.266;7.402;2023-10-31T12:23:25;98482.66;;;15.30;75.51
43147;BME280;28752;48.266;7.402;2023-10-31T12:25:51;98474.25;;;15.26;77.46
43147;BME280;28752;48.266;7.402;2023-10-31T12:28:19;98479.06;;;15.02;78.62
43147;BME280;28752;48.266;7.402;2023-10-31T12:30:46;98484.28;;;14.82;79.08
43147;BME280;28752;48.266;7.402;2023-10-31T12:33:12;98484.56;;;14.94;79.44
43147;BME280;28752;48.266;7.402;2023-10-31T12:35:38;98485.25;;;15.09;79.43
43147;BME280;28752;48.266;7.402;2023-10-31T12:38:03;98486.38;;;15.35;78.73
43147;BME280;28752;48.266;7.402;2023-10-31T12:40:29;98483.31;;;15.38;78.31
43147;BME280;28752;48.266;7.402;2023-10-31T12:42:55;98486.00;;;15.45;78.06
43147;BME280;28752;48.266;7.402;2023-10-31T12:45:21;98488.69;;;15.58;76.96
43147;BME280;28752;48.266;7.402;2023-10-31T12:48:01;98497.16;;;15.75;77.15
43147;BME280;28752;48.266;7.402;2023-10-31T12:50:28;98498.03;;;16.03;76.51
43147;BME280;28752;48.266;7.402;2023-10-31T12:52:56;98505.06;;;16.17;74.97
43147;BME280;28752;48.266;7.402;2023-10-31T12:55:24;98506.28;;;16.14;72.69
43147;BME280;28752;48.266;7.402;2023-10-31T12:57:51;98509.16;;;16.20;71.98